Terminal Aerodrome Forecast
Issued by NWS Charleston, SC

Home | Current Version | Previous Version | Text Only | Print | Product List | Glossary On
Versions: 1 2 3 4 5 6 7 8 9 10 11 12 13 14 15 16 17 18
000
FTUS42 KCHS 241100
TAFCHS
TAF
KCHS 241120Z 2412/2512 24010KT P6SM FEW030
     FM241900 23012G18KT P6SM VCTS FEW035CB SCT045
      TEMPO 2420/2424 4SM TSRA BR BKN025CB
     FM250000 22007KT 6SM -SHRA SCT040 BKN080
     FM250500 26005KT 6SM BR FEW015 SCT050 BKN150=

USA.gov is the U.S. government's official web portal to all federal, state and local government web resources and services.